Time,TemperatureF,DewpointF,PressureIn,WindDirection,WindDirectionDegrees,WindSpeedMPH,WindSpeedGustMPH,Humidity,HourlyPrecipIn,Conditions,Clouds,dailyrainin,SoftwareType,DateUTC
2013-03-27 00:00:00,48.9,44.0,29.99,WSW,245,2.0,2.0,83,0.00,,,0.00,WeatherCatV1.14B232,2013-03-27 07:00:00,
2013-03-27 00:05:00,48.8,43.9,29.99,WSW,253,1.0,2.0,83,0.00,,,0.00,WeatherCatV1.14B232,2013-03-27 07:05:00,
2013-03-27 00:10:00,48.7,43.8,29.98,WSW,248,0.0,1.0,83,0.00,,,0.00,WeatherCatV1.14B232,2013-03-27 07:10:00,
2013-03-27 00:15:00,48.7,43.8,29.98,WSW,243,0.0,0.0,83,0.00,,,0.00,WeatherCatV1.14B232,2013-03-27 07:15:00,
2013-03-27 00:20:00,48.6,43.7,29.98,WSW,241,0.0,0.0,83,0.00,,,0.00,WeatherCatV1.14B232,2013-03-27 07:20:00,
2013-03-27 00:25:00,48.7,43.8,29.98,WSW,243,0.0,0.0,83,0.00,,,0.00,WeatherCatV1.14B232,2013-03-27 07:25:00,
2013-03-27 00:30:00,48.6,43.7,29.98,SW,235,0.0,0.0,83,0.00,,,0.00,WeatherCatV1.14B232,2013-03-27 07:30:00,
2013-03-27 00:35:00,48.6,43.7,29.98,WSW,252,0.0,0.0,83,0.00,,,0.00,WeatherCatV1.14B232,2013-03-27 07:35:00,
2013-03-27 00:40:00,48.6,43.7,29.98,WSW,246,2.0,3.0,83,0.00,,,0.00,WeatherCatV1.14B232,2013-03-27 07:40:00,
2013-03-27 00:45:00,48.7,43.8,29.98,WSW,252,0.0,0.0,83,0.00,,,0.00,WeatherCatV1.14B232,2013-03-27 07:45:00,
2013-03-27 00:50:00,48.8,43.9,29.98,WSW,244,3.0,4.0,83,0.00,,,0.00,WeatherCatV1.14B232,2013-03-27 07:50:00,
2013-03-27 00:55:00,49.0,44.1,29.98,West,264,4.0,5.0,83,0.00,,,0.00,WeatherCatV1.14B232,2013-03-27 07:55:00,
2013-03-27 01:00:00,49.1,44.2,29.98,West,266,4.0,7.0,83,0.00,,,0.00,WeatherCatV1.14B232,2013-03-27 08:00:00,
2013-03-27 01:05:00,49.1,44.5,29.98,West,262,4.0,6.0,84,0.00,,,0.00,WeatherCatV1.14B232,2013-03-27 08:05:00,
2013-03-27 01:12:00,49.3,45.3,29.98,West,260,3.0,5.0,86,0.00,,,0.00,WeatherCatV1.14B232,2013-03-27 08:12:00,
2013-03-27 01:17:00,49.3,45.3,29.98,WSW,249,4.0,5.0,86,0.00,,,0.00,WeatherCatV1.14B232,2013-03-27 08:17:00,
2013-03-27 01:22:00,49.3,45.3,29.98,West,267,4.0,5.0,86,0.00,,,0.00,WeatherCatV1.14B232,2013-03-27 08:22:00,
2013-03-27 01:27:00,49.3,45.3,29.98,West,259,4.0,5.0,86,0.00,,,0.00,WeatherCatV1.14B232,2013-03-27 08:27:00,
2013-03-27 01:32:00,49.2,45.5,29.98,SW,229,6.0,7.0,87,0.00,,,0.00,WeatherCatV1.14B232,2013-03-27 08:32:00,
2013-03-27 01:37:00,49.2,45.5,29.98,WSW,243,4.0,5.0,87,0.00,,,0.00,WeatherCatV1.14B232,2013-03-27 08:37:00,
2013-03-27 01:42:00,49.3,45.6,29.98,SW,225,1.0,4.0,87,0.00,,,0.00,WeatherCatV1.14B232,2013-03-27 08:42:00,
2013-03-27 01:47:00,49.3,45.6,29.98,SSW,194,2.0,4.0,87,0.00,,,0.00,WeatherCatV1.14B232,2013-03-27 08:47:00,
2013-03-27 01:52:00,49.3,45.6,29.98,SSW,204,3.0,6.0,87,0.00,,,0.00,WeatherCatV1.14B232,2013-03-27 08:52:00,
2013-03-27 01:57:00,49.2,45.5,29.98,WSW,245,4.0,4.0,87,0.00,,,0.00,WeatherCatV1.14B232,2013-03-27 08:57:00,
2013-03-27 02:02:00,49.2,45.5,29.98,West,259,5.0,6.0,87,0.00,,,0.00,WeatherCatV1.14B232,2013-03-27 09:02:00,
2013-03-27 02:07:00,49.2,45.5,29.98,WSW,245,3.0,6.0,87,0.00,,,0.00,WeatherCatV1.14B232,2013-03-27 09:07:00,
2013-03-27 02:12:00,49.1,45.4,29.98,SW,236,2.0,2.0,87,0.00,,,0.00,WeatherCatV1.14B232,2013-03-27 09:12:00,
2013-03-27 02:17:00,49.0,45.3,29.97,WSW,255,2.0,3.0,87,0.00,,,0.00,WeatherCatV1.14B232,2013-03-27 09:17:00,
2013-03-27 02:22:00,48.8,45.1,29.97,WSW,252,4.0,5.0,87,0.00,,,0.00,WeatherCatV1.14B232,2013-03-27 09:22:00,
2013-03-27 02:27:00,48.8,45.1,29.97,West,268,3.0,6.0,87,0.00,,,0.00,WeatherCatV1.14B232,2013-03-27 09:27:00,
2013-03-27 02:32:00,48.9,45.2,29.97,SW,232,2.0,4.0,87,0.00,,,0.00,WeatherCatV1.14B232,2013-03-27 09:32:00,
2013-03-27 02:37:00,48.8,44.8,29.97,WSW,248,3.0,3.0,86,0.00,,,0.00,WeatherCatV1.14B232,2013-03-27 09:37:00,
2013-03-27 02:42:00,48.6,44.6,29.97,WSW,244,3.0,4.0,86,0.00,,,0.00,WeatherCatV1.14B232,2013-03-27 09:42:00,
2013-03-27 02:47:00,48.5,44.5,29.97,WSW,243,2.0,3.0,86,0.00,,,0.00,WeatherCatV1.14B232,2013-03-27 09:47:00,
2013-03-27 02:52:00,48.4,44.4,29.97,WSW,253,2.0,3.0,86,0.00,,,0.00,WeatherCatV1.14B232,2013-03-27 09:52:00,
2013-03-27 02:57:00,48.4,44.7,29.96,West,264,3.0,4.0,87,0.00,,,0.00,WeatherCatV1.14B232,2013-03-27 09:57:00,
2013-03-27 03:02:00,48.6,44.6,29.96,SW,229,3.0,3.0,86,0.00,,,0.00,WeatherCatV1.14B232,2013-03-27 10:02:00,
2013-03-27 03:07:00,48.6,44.6,29.96,SW,229,2.0,2.0,86,0.00,,,0.00,WeatherCatV1.14B232,2013-03-27 10:07:00,
2013-03-27 03:12:00,48.6,44.6,29.96,WSW,245,2.0,3.0,86,0.00,,,0.00,WeatherCatV1.14B232,2013-03-27 10:12:00,
2013-03-27 03:17:00,48.7,45.0,29.96,WSW,238,3.0,3.0,87,0.00,,,0.00,WeatherCatV1.14B232,2013-03-27 10:17:00,
2013-03-27 03:22:00,48.6,44.9,29.96,SW,229,3.0,4.0,87,0.00,,,0.00,WeatherCatV1.14B232,2013-03-27 10:22:00,
2013-03-27 03:27:00,48.4,44.7,29.96,SW,233,3.0,4.0,87,0.00,,,0.00,WeatherCatV1.14B232,2013-03-27 10:27:00,
2013-03-27 03:32:00,48.3,44.9,29.96,West,260,3.0,4.0,88,0.00,,,0.00,WeatherCatV1.14B232,2013-03-27 10:32:00,
2013-03-27 03:37:00,48.3,44.9,29.96,WSW,249,3.0,3.0,88,0.00,,,0.00,WeatherCatV1.14B232,2013-03-27 10:37:00,
2013-03-27 03:42:00,48.4,45.0,29.96,WSW,240,2.0,3.0,88,0.00,,,0.00,WeatherCatV1.14B232,2013-03-27 10:42:00,
2013-03-27 03:47:00,48.6,45.2,29.96,WSW,250,2.0,3.0,88,0.00,,,0.00,WeatherCatV1.14B232,2013-03-27 10:47:00,
2013-03-27 03:52:00,48.8,45.4,29.96,West,259,2.0,3.0,88,0.00,,,0.00,WeatherCatV1.14B232,2013-03-27 10:52:00,
2013-03-27 03:57:00,49.1,45.7,29.96,WSW,250,3.0,4.0,88,0.00,,,0.00,WeatherCatV1.14B232,2013-03-27 10:57:00,
2013-03-27 04:02:00,49.2,45.8,29.96,WSW,252,4.0,6.0,88,0.00,,,0.00,WeatherCatV1.14B232,2013-03-27 11:02:00,
2013-03-27 04:07:00,49.5,45.8,29.96,West,259,3.0,4.0,87,0.00,,,0.00,WeatherCatV1.14B232,2013-03-27 11:07:00,
2013-03-27 04:12:00,49.7,45.7,29.96,West,269,3.0,5.0,86,0.00,,,0.00,WeatherCatV1.14B232,2013-03-27 11:12:00,
2013-03-27 04:17:00,49.7,45.7,29.96,WSW,244,4.0,4.0,86,0.00,,,0.00,WeatherCatV1.14B232,2013-03-27 11:17:00,
2013-03-27 04:22:00,49.7,45.7,29.96,WSW,246,4.0,4.0,86,0.00,,,0.00,WeatherCatV1.14B232,2013-03-27 11:22:00,
2013-03-27 04:27:00,49.7,45.7,29.96,West,263,3.0,5.0,86,0.00,,,0.00,WeatherCatV1.14B232,2013-03-27 11:27:00,
2013-03-27 04:32:00,49.8,45.8,29.96,WSW,248,5.0,6.0,86,0.00,,,0.00,WeatherCatV1.14B232,2013-03-27 11:32:00,
2013-03-27 04:37:00,49.8,45.8,29.96,WSW,256,4.0,5.0,86,0.00,,,0.00,WeatherCatV1.14B232,2013-03-27 11:37:00,
2013-03-27 04:42:00,49.9,45.9,29.96,WSW,256,4.0,4.0,86,0.00,,,0.00,WeatherCatV1.14B232,2013-03-27 11:42:00,
2013-03-27 04:47:00,49.8,45.8,29.96,West,265,3.0,5.0,86,0.00,,,0.00,WeatherCatV1.14B232,2013-03-27 11:47:00,
2013-03-27 04:52:00,49.8,45.8,29.96,WSW,256,3.0,4.0,86,0.00,,,0.00,WeatherCatV1.14B232,2013-03-27 11:52:00,
2013-03-27 04:57:00,49.8,45.8,29.96,WSW,245,3.0,3.0,86,0.00,,,0.00,WeatherCatV1.14B232,2013-03-27 11:57:00,
2013-03-27 05:02:00,49.8,46.1,29.96,West,260,3.0,4.0,87,0.00,,,0.00,WeatherCatV1.14B232,2013-03-27 12:02:00,
2013-03-27 05:07:00,49.9,46.2,29.96,West,259,2.0,3.0,87,0.00,,,0.00,WeatherCatV1.14B232,2013-03-27 12:07:00,
2013-03-27 05:12:00,49.9,46.2,29.96,WSW,249,3.0,4.0,87,0.00,,,0.00,WeatherCatV1.14B232,2013-03-27 12:12:00,
2013-03-27 05:17:00,50.0,46.3,29.96,West,263,2.0,3.0,87,0.00,,,0.00,WeatherCatV1.14B232,2013-03-27 12:17:00,
2013-03-27 05:22:00,50.0,46.3,29.96,WSW,252,3.0,4.0,87,0.00,,,0.00,WeatherCatV1.14B232,2013-03-27 12:22:00,
2013-03-27 05:27:00,50.1,46.4,29.96,WSW,253,2.0,3.0,87,0.00,,,0.00,WeatherCatV1.14B232,2013-03-27 12:27:00,
2013-03-27 05:32:00,50.1,46.4,29.96,West,261,2.0,3.0,87,0.00,,,0.00,WeatherCatV1.14B232,2013-03-27 12:32:00,
2013-03-27 05:37:00,50.2,46.5,29.96,SW,218,1.0,2.0,87,0.00,,,0.00,WeatherCatV1.14B232,2013-03-27 12:37:00,
2013-03-27 05:42:00,50.2,46.8,29.96,SW,236,4.0,5.0,88,0.00,,,0.00,WeatherCatV1.14B232,2013-03-27 12:42:00,
2013-03-27 05:47:00,50.2,46.8,29.96,WSW,238,4.0,5.0,88,0.00,,,0.00,WeatherCatV1.14B232,2013-03-27 12:47:00,
2013-03-27 05:52:00,50.2,46.8,29.96,West,264,3.0,5.0,88,0.00,,,0.00,WeatherCatV1.14B232,2013-03-27 12:52:00,
2013-03-27 05:57:00,50.2,46.8,29.96,WSW,238,6.0,6.0,88,0.00,,,0.00,WeatherCatV1.14B232,2013-03-27 12:57:00,
2013-03-27 06:02:00,50.0,46.6,29.96,WSW,253,4.0,5.0,88,0.00,,,0.00,WeatherCatV1.14B232,2013-03-27 13:02:00,
2013-03-27 06:07:00,50.0,46.9,29.96,West,259,3.0,4.0,89,0.00,,,0.00,WeatherCatV1.14B232,2013-03-27 13:07:00,
2013-03-27 06:12:00,49.9,46.8,29.96,WSW,253,5.0,5.0,89,0.00,,,0.00,WeatherCatV1.14B232,2013-03-27 13:12:00,
2013-03-27 06:17:00,49.8,46.7,29.96,West,259,3.0,4.0,89,0.00,,,0.00,WeatherCatV1.14B232,2013-03-27 13:17:00,
2013-03-27 06:22:00,49.6,46.5,29.96,WSW,253,3.0,6.0,89,0.00,,,0.00,WeatherCatV1.14B232,2013-03-27 13:22:00,
2013-03-27 06:27:00,49.5,46.4,29.96,West,267,4.0,6.0,89,0.00,,,0.00,WeatherCatV1.14B232,2013-03-27 13:27:00,
2013-03-27 06:32:00,49.4,46.6,29.96,West,263,4.0,6.0,90,0.00,,,0.00,WeatherCatV1.14B232,2013-03-27 13:32:00,
2013-03-27 06:37:00,49.4,46.6,29.96,WSW,243,6.0,6.0,90,0.00,,,0.00,WeatherCatV1.14B232,2013-03-27 13:37:00,
2013-03-27 06:42:00,49.4,46.6,29.96,West,262,4.0,6.0,90,0.00,,,0.00,WeatherCatV1.14B232,2013-03-27 13:42:00,
2013-03-27 06:47:00,49.3,46.5,29.96,West,268,3.0,6.0,90,0.00,,,0.00,WeatherCatV1.14B232,2013-03-27 13:47:00,
2013-03-27 06:52:00,49.3,46.5,29.96,WSW,244,5.0,6.0,90,0.00,,,0.00,WeatherCatV1.14B232,2013-03-27 13:52:00,
2013-03-27 06:57:00,49.3,46.5,29.96,SW,228,5.0,6.0,90,0.00,,,0.00,WeatherCatV1.14B232,2013-03-27 13:57:00,
2013-03-27 07:02:00,49.3,46.5,29.96,WSW,248,5.0,5.0,90,0.00,,,0.00,WeatherCatV1.14B232,2013-03-27 14:02:00,
2013-03-27 07:07:00,49.4,46.6,29.96,West,270,2.0,4.0,90,0.00,,,0.00,WeatherCatV1.14B232,2013-03-27 14:07:00,
2013-03-27 07:12:00,49.4,46.6,29.96,WSW,252,3.0,6.0,90,0.00,,,0.00,WeatherCatV1.14B232,2013-03-27 14:12:00,
2013-03-27 07:17:00,49.4,46.6,29.96,West,267,3.0,5.0,90,0.00,,,0.00,WeatherCatV1.14B232,2013-03-27 14:17:00,
2013-03-27 07:22:00,49.4,46.6,29.96,West,260,2.0,4.0,90,0.00,,,0.00,WeatherCatV1.14B232,2013-03-27 14:22:00,
2013-03-27 07:27:00,49.5,46.7,29.97,West,259,2.0,4.0,90,0.00,,,0.00,WeatherCatV1.14B232,2013-03-27 14:27:00,
2013-03-27 07:32:00,49.7,46.9,29.97,West,259,2.0,3.0,90,0.00,,,0.00,WeatherCatV1.14B232,2013-03-27 14:32:00,
2013-03-27 07:37:00,49.8,47.0,29.97,WSW,245,1.0,3.0,90,0.00,,,0.00,WeatherCatV1.14B232,2013-03-27 14:37:00,
2013-03-27 07:42:00,49.9,46.8,29.97,WSW,243,1.0,2.0,89,0.00,,,0.00,WeatherCatV1.14B232,2013-03-27 14:42:00,
2013-03-27 07:47:00,49.9,46.8,29.97,WSW,238,1.0,3.0,89,0.00,,,0.00,WeatherCatV1.14B232,2013-03-27 14:47:00,
2013-03-27 07:52:00,49.9,46.8,29.97,WSW,243,0.0,0.0,89,0.00,,,0.00,WeatherCatV1.14B232,2013-03-27 14:52:00,
2013-03-27 07:57:00,50.0,46.9,29.97,WSW,253,0.0,0.0,89,0.00,,,0.00,WeatherCatV1.14B232,2013-03-27 14:57:00,
2013-03-27 08:02:00,50.1,46.7,29.98,WSW,253,3.0,4.0,88,0.00,,,0.00,WeatherCatV1.14B232,2013-03-27 15:02:00,
2013-03-27 08:07:00,50.3,46.9,29.98,WSW,256,3.0,5.0,88,0.00,,,0.00,WeatherCatV1.14B232,2013-03-27 15:07:00,
2013-03-27 08:12:00,50.6,47.2,29.98,WSW,253,4.0,5.0,88,0.00,,,0.00,WeatherCatV1.14B232,2013-03-27 15:12:00,
2013-03-27 08:17:00,50.7,47.3,29.98,WSW,249,4.0,5.0,88,0.00,,,0.00,WeatherCatV1.14B232,2013-03-27 15:17:00,
2013-03-27 08:22:00,50.8,47.4,29.98,WSW,240,3.0,5.0,88,0.00,,,0.00,WeatherCatV1.14B232,2013-03-27 15:22:00,
2013-03-27 08:29:00,51.0,47.3,29.98,WSW,253,3.0,3.0,87,0.00,,,0.00,WeatherCatV1.14B232,2013-03-27 15:29:00,
2013-03-27 08:34:00,51.2,47.5,29.98,West,259,1.0,3.0,87,0.00,,,0.00,WeatherCatV1.14B232,2013-03-27 15:34:00,
2013-03-27 08:39:00,51.5,47.8,29.98,West,259,2.0,3.0,87,0.00,,,0.00,WeatherCatV1.14B232,2013-03-27 15:39:00,
2013-03-27 08:44:00,51.6,47.5,29.98,WSW,255,2.0,4.0,86,0.00,,,0.00,WeatherCatV1.14B232,2013-03-27 15:44:00,
2013-03-27 08:49:00,51.8,47.7,29.98,WSW,252,2.0,3.0,86,0.00,,,0.00,WeatherCatV1.14B232,2013-03-27 15:49:00,
2013-03-27 08:54:00,51.9,47.8,29.98,WSW,240,2.0,2.0,86,0.00,,,0.00,WeatherCatV1.14B232,2013-03-27 15:54:00,
2013-03-27 08:59:00,52.2,48.1,29.98,WSW,257,1.0,2.0,86,0.00,,,0.00,WeatherCatV1.14B232,2013-03-27 15:59:00,
2013-03-27 09:04:00,52.4,48.3,29.98,WSW,244,0.0,0.0,86,0.00,,,0.00,WeatherCatV1.14B232,2013-03-27 16:04:00,
2013-03-27 09:09:00,52.5,48.1,29.98,SW,230,1.0,2.0,85,0.00,,,0.00,WeatherCatV1.14B232,2013-03-27 16:09:00,
2013-03-27 09:14:00,52.6,48.2,29.98,WSW,250,0.0,1.0,85,0.00,,,0.00,WeatherCatV1.14B232,2013-03-27 16:14:00,
2013-03-27 09:19:00,53.0,48.6,29.98,WSW,252,0.0,0.0,85,0.00,,,0.00,WeatherCatV1.14B232,2013-03-27 16:19:00,
2013-03-27 09:24:00,53.4,48.7,29.98,WSW,249,0.0,0.0,84,0.00,,,0.00,WeatherCatV1.14B232,2013-03-27 16:24:00,
2013-03-27 09:29:00,53.8,49.1,29.98,SW,231,0.0,0.0,84,0.00,,,0.00,WeatherCatV1.14B232,2013-03-27 16:29:00,
2013-03-27 09:34:00,54.0,49.0,29.99,WSW,252,1.0,3.0,83,0.00,,,0.00,WeatherCatV1.14B232,2013-03-27 16:34:00,
2013-03-27 09:39:00,54.2,49.1,29.99,WSW,237,2.0,3.0,83,0.00,,,0.00,WeatherCatV1.14B232,2013-03-27 16:39:00,
2013-03-27 09:44:00,54.2,49.1,29.99,West,264,1.0,2.0,83,0.00,,,0.00,WeatherCatV1.14B232,2013-03-27 16:44:00,
2013-03-27 09:49:00,54.2,49.1,29.99,WSW,245,2.0,2.0,83,0.00,,,0.00,WeatherCatV1.14B232,2013-03-27 16:49:00,
2013-03-27 09:54:00,54.5,49.4,29.99,West,264,2.0,4.0,83,0.00,,,0.00,WeatherCatV1.14B232,2013-03-27 16:54:00,
2013-03-27 09:59:00,54.6,49.5,29.99,WSW,240,4.0,4.0,83,0.00,,,0.00,WeatherCatV1.14B232,2013-03-27 16:59:00,
2013-03-27 10:04:00,54.7,49.6,29.99,West,263,2.0,4.0,83,0.00,,,0.00,WeatherCatV1.14B232,2013-03-27 17:04:00,
2013-03-27 10:09:00,54.7,49.6,29.99,West,259,2.0,4.0,83,0.00,,,0.00,WeatherCatV1.14B232,2013-03-27 17:09:00,
2013-03-27 10:14:00,55.0,49.9,29.99,WSW,244,2.0,4.0,83,0.00,,,0.00,WeatherCatV1.14B232,2013-03-27 17:14:00,
2013-03-27 10:19:00,55.2,50.1,29.99,West,259,3.0,6.0,83,0.00,,,0.00,WeatherCatV1.14B232,2013-03-27 17:19:00,
2013-03-27 10:24:00,55.4,50.0,29.99,West,264,4.0,5.0,82,0.00,,,0.00,WeatherCatV1.14B232,2013-03-27 17:24:00,
2013-03-27 10:29:00,55.1,50.0,29.99,West,268,3.0,6.0,83,0.00,,,0.00,WeatherCatV1.14B232,2013-03-27 17:29:00,
2013-03-27 10:35:00,55.0,49.9,30.00,SW,222,4.0,4.0,83,0.00,,,0.00,WeatherCatV1.14B232,2013-03-27 17:35:00,
2013-03-27 10:40:00,55.1,50.0,30.00,SW,236,4.0,5.0,83,0.00,,,0.00,WeatherCatV1.14B232,2013-03-27 17:40:00,
2013-03-27 10:45:00,55.2,50.1,29.99,West,259,4.0,5.0,83,0.00,,,0.00,WeatherCatV1.14B232,2013-03-27 17:45:00,
2013-03-27 10:50:00,55.3,50.2,29.99,West,271,5.0,6.0,83,0.00,,,0.00,WeatherCatV1.14B232,2013-03-27 17:50:00,
2013-03-27 10:55:00,55.8,50.7,29.99,WSW,244,4.0,6.0,83,0.00,,,0.00,WeatherCatV1.14B232,2013-03-27 17:55:00,
2013-03-27 11:00:00,56.0,50.6,29.99,West,268,4.0,6.0,82,0.00,,,0.00,WeatherCatV1.14B232,2013-03-27 18:00:00,
2013-03-27 11:05:00,55.8,50.4,30.00,West,264,5.0,5.0,82,0.00,,,0.00,WeatherCatV1.14B232,2013-03-27 18:05:00,
2013-03-27 11:10:00,56.0,50.6,30.00,West,261,4.0,6.0,82,0.00,,,0.00,WeatherCatV1.14B232,2013-03-27 18:10:00,
2013-03-27 11:15:00,55.9,50.5,30.00,West,271,3.0,7.0,82,0.00,,,0.00,WeatherCatV1.14B232,2013-03-27 18:15:00,
2013-03-27 11:20:00,55.9,50.8,30.00,West,260,4.0,4.0,83,0.00,,,0.00,WeatherCatV1.14B232,2013-03-27 18:20:00,
2013-03-27 11:25:00,56.2,50.8,30.00,West,270,4.0,8.0,82,0.00,,,0.00,WeatherCatV1.14B232,2013-03-27 18:25:00,
2013-03-27 11:30:00,56.1,51.0,30.00,West,262,5.0,6.0,83,0.00,,,0.00,WeatherCatV1.14B232,2013-03-27 18:30:00,
2013-03-27 11:35:00,56.1,50.7,30.00,West,268,3.0,6.0,82,0.00,,,0.00,WeatherCatV1.14B232,2013-03-27 18:35:00,
2013-03-27 11:40:00,56.2,51.1,30.00,WSW,245,6.0,6.0,83,0.00,,,0.00,WeatherCatV1.14B232,2013-03-27 18:40:00,
2013-03-27 11:45:00,56.4,51.3,30.00,West,262,4.0,5.0,83,0.00,,,0.00,WeatherCatV1.14B232,2013-03-27 18:45:00,
2013-03-27 11:51:00,56.8,51.4,30.00,West,267,4.0,9.0,82,0.00,,,0.00,WeatherCatV1.14B232,2013-03-27 18:51:00,
2013-03-27 11:56:00,57.0,51.6,30.00,West,261,4.0,6.0,82,0.00,,,0.00,WeatherCatV1.14B232,2013-03-27 18:56:00,
2013-03-27 12:01:00,57.1,51.7,30.00,West,269,4.0,7.0,82,0.00,,,0.00,WeatherCatV1.14B232,2013-03-27 19:01:00,
2013-03-27 12:06:00,56.7,51.6,30.00,WSW,248,5.0,9.0,83,0.00,,,0.00,WeatherCatV1.14B232,2013-03-27 19:06:00,
2013-03-27 12:11:00,56.5,51.4,30.00,WSW,257,9.0,9.0,83,0.00,,,0.00,WeatherCatV1.14B232,2013-03-27 19:11:00,
2013-03-27 12:16:00,56.3,51.5,30.00,WSW,249,9.0,9.0,84,0.00,,,0.00,WeatherCatV1.14B232,2013-03-27 19:16:00,
2013-03-27 12:21:00,56.9,52.1,30.00,West,259,6.0,9.0,84,0.00,,,0.00,WeatherCatV1.14B232,2013-03-27 19:21:00,
2013-03-27 12:26:00,56.8,51.7,30.00,WSW,255,7.0,11.0,83,0.00,,,0.00,WeatherCatV1.14B232,2013-03-27 19:26:00,
2013-03-27 12:31:00,56.6,51.5,30.00,West,271,6.0,9.0,83,0.00,,,0.00,WeatherCatV1.14B232,2013-03-27 19:31:00,
2013-03-27 12:36:00,56.7,51.6,30.00,West,271,11.0,11.0,83,0.00,,,0.00,WeatherCatV1.14B232,2013-03-27 19:36:00,
2013-03-27 12:41:00,56.8,52.0,30.00,West,275,5.0,9.0,84,0.00,,,0.00,WeatherCatV1.14B232,2013-03-27 19:41:00,
2013-03-27 12:46:00,57.0,51.9,30.00,West,267,7.0,10.0,83,0.00,,,0.00,WeatherCatV1.14B232,2013-03-27 19:46:00,
2013-03-27 12:51:00,57.1,52.0,30.00,WSW,257,7.0,11.0,83,0.00,,,0.00,WeatherCatV1.14B232,2013-03-27 19:51:00,
2013-03-27 12:56:00,56.8,51.7,30.00,West,275,5.0,11.0,83,0.00,,,0.00,WeatherCatV1.14B232,2013-03-27 19:56:00,
2013-03-27 13:01:00,56.3,51.5,30.00,West,271,5.0,12.0,84,0.00,,,0.00,WeatherCatV1.14B232,2013-03-27 20:01:00,
2013-03-27 13:06:00,55.9,51.5,30.00,West,264,6.0,9.0,85,0.00,,,0.00,WeatherCatV1.14B232,2013-03-27 20:06:00,
2013-03-27 13:11:00,55.6,51.8,30.00,WSW,243,6.0,8.0,87,0.00,,,0.00,WeatherCatV1.14B232,2013-03-27 20:11:00,
2013-03-27 13:16:00,55.6,51.8,30.00,West,277,5.0,8.0,87,0.00,,,0.00,WeatherCatV1.14B232,2013-03-27 20:16:00,
2013-03-27 13:21:00,55.6,51.8,30.00,West,276,4.0,8.0,87,0.00,,,0.00,WeatherCatV1.14B232,2013-03-27 20:21:00,
2013-03-27 13:26:00,55.5,51.4,30.00,WSW,243,7.0,10.0,86,0.00,,,0.00,WeatherCatV1.14B232,2013-03-27 20:26:00,
2013-03-27 13:31:00,55.4,51.3,30.00,West,267,4.0,11.0,86,0.00,,,0.00,WeatherCatV1.14B232,2013-03-27 20:31:00,
2013-03-27 13:36:00,55.6,51.8,30.00,West,267,7.0,9.0,87,0.00,,,0.00,WeatherCatV1.14B232,2013-03-27 20:36:00,
2013-03-27 13:41:00,55.4,51.3,30.00,WSW,253,5.0,8.0,86,0.00,,,0.00,WeatherCatV1.14B232,2013-03-27 20:41:00,
2013-03-27 13:46:00,54.9,50.8,30.00,West,271,6.0,10.0,86,0.00,,,0.00,WeatherCatV1.14B232,2013-03-27 20:46:00,
2013-03-27 13:51:00,55.0,51.5,30.00,WNW,283,6.0,8.0,88,0.00,,,0.00,WeatherCatV1.14B232,2013-03-27 20:51:00,
2013-03-27 13:56:00,54.6,51.1,30.00,West,259,9.0,13.0,88,0.00,,,0.00,WeatherCatV1.14B232,2013-03-27 20:56:00,
2013-03-27 14:01:00,54.4,50.9,30.00,West,266,6.0,12.0,88,0.00,,,0.00,WeatherCatV1.14B232,2013-03-27 21:01:00,
2013-03-27 14:06:00,54.2,50.7,30.00,West,263,7.0,11.0,88,0.00,,,0.00,WeatherCatV1.14B232,2013-03-27 21:06:00,
2013-03-27 14:11:00,54.2,50.7,30.00,West,276,7.0,13.0,88,0.00,,,0.00,WeatherCatV1.14B232,2013-03-27 21:11:00,
2013-03-27 14:16:00,54.1,50.9,30.00,West,271,9.0,9.0,89,0.00,,,0.00,WeatherCatV1.14B232,2013-03-27 21:16:00,
2013-03-27 14:21:00,54.1,50.9,30.00,West,267,8.0,9.0,89,0.00,,,0.00,WeatherCatV1.14B232,2013-03-27 21:21:00,
2013-03-27 14:26:00,53.9,50.7,30.00,West,263,8.0,10.0,89,0.00,,,0.00,WeatherCatV1.14B232,2013-03-27 21:26:00,
2013-03-27 14:31:00,53.9,50.7,30.00,West,259,9.0,11.0,89,0.00,,,0.00,WeatherCatV1.14B232,2013-03-27 21:31:00,
2013-03-27 14:36:00,53.8,50.9,30.00,WSW,248,7.0,10.0,90,0.00,,,0.00,WeatherCatV1.14B232,2013-03-27 21:36:00,
2013-03-27 14:41:00,54.0,51.1,29.99,West,262,7.0,9.0,90,0.00,,,0.00,WeatherCatV1.14B232,2013-03-27 21:41:00,
2013-03-27 14:46:00,54.1,51.2,29.99,West,259,7.0,9.0,90,0.00,,,0.00,WeatherCatV1.14B232,2013-03-27 21:46:00,
2013-03-27 14:51:00,54.0,51.1,29.99,West,267,7.0,9.0,90,0.00,,,0.00,WeatherCatV1.14B232,2013-03-27 21:51:00,
2013-03-27 14:56:00,54.0,51.1,29.99,West,261,8.0,10.0,90,0.00,,,0.00,WeatherCatV1.14B232,2013-03-27 21:56:00,
2013-03-27 15:01:00,53.8,50.9,29.99,WSW,252,7.0,11.0,90,0.00,,,0.00,WeatherCatV1.14B232,2013-03-27 22:01:00,
2013-03-27 15:06:00,53.8,50.9,29.99,West,262,9.0,11.0,90,0.00,,,0.00,WeatherCatV1.14B232,2013-03-27 22:06:00,
2013-03-27 15:11:00,53.8,50.9,29.99,West,264,7.0,12.0,90,0.00,,,0.00,WeatherCatV1.14B232,2013-03-27 22:11:00,
2013-03-27 15:16:00,53.8,50.9,29.99,WSW,253,8.0,12.0,90,0.00,,,0.00,WeatherCatV1.14B232,2013-03-27 22:16:00,
2013-03-27 15:21:00,53.7,50.8,29.99,WSW,257,8.0,11.0,90,0.00,,,0.00,WeatherCatV1.14B232,2013-03-27 22:21:00,
2013-03-27 15:26:00,53.5,50.6,29.99,WSW,243,7.0,11.0,90,0.00,,,0.00,WeatherCatV1.14B232,2013-03-27 22:26:00,
2013-03-27 15:31:00,53.5,50.6,29.99,West,260,5.0,11.0,90,0.00,,,0.00,WeatherCatV1.14B232,2013-03-27 22:31:00,
2013-03-27 15:36:00,53.5,50.6,29.99,WSW,255,11.0,11.0,90,0.00,,,0.00,WeatherCatV1.14B232,2013-03-27 22:36:00,
2013-03-27 15:41:00,53.3,50.4,29.99,WSW,252,5.0,10.0,90,0.00,,,0.00,WeatherCatV1.14B232,2013-03-27 22:41:00,
2013-03-27 15:46:00,53.4,50.8,30.00,West,273,6.0,10.0,91,0.00,,,0.00,WeatherCatV1.14B232,2013-03-27 22:46:00,
2013-03-27 15:51:00,53.2,50.6,30.00,WSW,255,6.0,8.0,91,0.00,,,0.00,WeatherCatV1.14B232,2013-03-27 22:51:00,
2013-03-27 15:56:00,53.2,50.6,30.00,West,264,8.0,10.0,91,0.00,,,0.00,WeatherCatV1.14B232,2013-03-27 22:56:00,
2013-03-27 16:01:00,53.2,50.6,29.99,WSW,256,4.0,8.0,91,0.00,,,0.00,WeatherCatV1.14B232,2013-03-27 23:01:00,
2013-03-27 16:06:00,53.3,50.7,30.00,West,264,7.0,9.0,91,0.00,,,0.00,WeatherCatV1.14B232,2013-03-27 23:06:00,
2013-03-27 16:11:00,53.2,50.6,29.99,West,273,6.0,8.0,91,0.00,,,0.00,WeatherCatV1.14B232,2013-03-27 23:11:00,
2013-03-27 16:16:00,53.1,50.5,29.99,West,274,4.0,11.0,91,0.00,,,0.00,WeatherCatV1.14B232,2013-03-27 23:16:00,
2013-03-27 16:21:00,53.1,50.5,29.99,WSW,258,5.0,8.0,91,0.00,,,0.00,WeatherCatV1.14B232,2013-03-27 23:21:00,
2013-03-27 16:26:00,52.9,50.3,29.99,WSW,256,5.0,6.0,91,0.00,,,0.00,WeatherCatV1.14B232,2013-03-27 23:26:00,
2013-03-27 16:31:00,52.9,50.3,30.00,WSW,248,7.0,7.0,91,0.00,,,0.00,WeatherCatV1.14B232,2013-03-27 23:31:00,
2013-03-27 16:36:00,52.8,50.2,30.00,West,274,5.0,9.0,91,0.00,,,0.00,WeatherCatV1.14B232,2013-03-27 23:36:00,
2013-03-27 16:41:00,52.8,50.2,30.00,SW,232,11.0,11.0,91,0.00,,,0.00,WeatherCatV1.14B232,2013-03-27 23:41:00,
2013-03-27 16:46:00,52.7,50.1,29.99,West,269,5.0,9.0,91,0.00,,,0.00,WeatherCatV1.14B232,2013-03-27 23:46:00,
2013-03-27 16:51:00,52.8,50.2,29.99,West,267,6.0,9.0,91,0.00,,,0.00,WeatherCatV1.14B232,2013-03-27 23:51:00,
2013-03-27 16:56:00,52.8,50.2,29.99,WSW,240,7.0,8.0,91,0.00,,,0.00,WeatherCatV1.14B232,2013-03-27 23:56:00,
2013-03-27 17:01:00,52.8,50.2,29.99,West,266,6.0,11.0,91,0.00,,,0.00,WeatherCatV1.14B232,2013-03-28 00:01:00,
2013-03-27 17:08:00,52.9,50.3,29.99,West,268,6.0,11.0,91,0.00,,,0.00,WeatherCatV1.14B232,2013-03-28 00:08:00,
2013-03-27 17:13:00,53.0,50.4,29.99,West,276,6.0,8.0,91,0.00,,,0.00,WeatherCatV1.14B232,2013-03-28 00:13:00,
2013-03-27 17:18:00,52.9,50.3,29.99,West,274,5.0,10.0,91,0.00,,,0.00,WeatherCatV1.14B232,2013-03-28 00:18:00,
2013-03-27 17:23:00,52.9,50.3,29.99,West,271,7.0,7.0,91,0.00,,,0.00,WeatherCatV1.14B232,2013-03-28 00:23:00,
2013-03-27 17:28:00,53.1,50.5,29.99,West,267,4.0,6.0,91,0.00,,,0.00,WeatherCatV1.14B232,2013-03-28 00:28:00,
2013-03-27 17:33:00,53.2,50.6,29.99,West,271,3.0,5.0,91,0.00,,,0.00,WeatherCatV1.14B232,2013-03-28 00:33:00,
2013-03-27 17:38:00,53.1,50.5,29.99,West,274,6.0,9.0,91,0.00,,,0.00,WeatherCatV1.14B232,2013-03-28 00:38:00,
2013-03-27 17:43:00,53.2,50.9,29.99,West,259,4.0,7.0,92,0.00,,,0.00,WeatherCatV1.14B232,2013-03-28 00:43:00,
2013-03-27 17:48:00,53.2,50.9,29.99,WSW,256,7.0,9.0,92,0.00,,,0.00,WeatherCatV1.14B232,2013-03-28 00:48:00,
2013-03-27 17:53:00,53.2,50.9,29.99,WSW,250,7.0,8.0,92,0.00,,,0.00,WeatherCatV1.14B232,2013-03-28 00:53:00,
2013-03-27 17:58:00,53.1,50.8,29.99,WSW,257,6.0,9.0,92,0.00,,,0.00,WeatherCatV1.14B232,2013-03-28 00:58:00,
2013-03-27 18:03:00,53.1,50.8,29.99,West,278,6.0,10.0,92,0.00,,,0.00,WeatherCatV1.14B232,2013-03-28 01:03:00,
2013-03-27 18:08:00,53.2,50.9,29.99,WSW,256,7.0,9.0,92,0.00,,,0.00,WeatherCatV1.14B232,2013-03-28 01:08:00,
2013-03-27 18:13:00,53.1,50.8,29.99,West,280,7.0,10.0,92,0.00,,,0.00,WeatherCatV1.14B232,2013-03-28 01:13:00,
2013-03-27 18:18:00,53.0,50.7,29.99,West,264,8.0,12.0,92,0.00,,,0.00,WeatherCatV1.14B232,2013-03-28 01:18:00,
2013-03-27 18:23:00,53.0,50.7,29.99,WSW,248,6.0,10.0,92,0.00,,,0.00,WeatherCatV1.14B232,2013-03-28 01:23:00,
2013-03-27 18:28:00,52.9,50.6,29.99,WSW,238,9.0,9.0,92,0.00,,,0.00,WeatherCatV1.14B232,2013-03-28 01:28:00,
2013-03-27 18:33:00,52.8,50.5,29.99,West,275,6.0,10.0,92,0.00,,,0.00,WeatherCatV1.14B232,2013-03-28 01:33:00,
2013-03-27 18:38:00,52.8,50.5,29.99,WSW,256,6.0,8.0,92,0.00,,,0.00,WeatherCatV1.14B232,2013-03-28 01:38:00,
2013-03-27 18:43:00,52.7,50.4,29.99,West,263,6.0,9.0,92,0.00,,,0.00,WeatherCatV1.14B232,2013-03-28 01:43:00,
2013-03-27 18:48:00,52.7,50.4,29.99,West,271,5.0,8.0,92,0.00,,,0.00,WeatherCatV1.14B232,2013-03-28 01:48:00,
2013-03-27 18:53:00,52.6,50.3,29.99,West,268,5.0,7.0,92,0.00,,,0.00,WeatherCatV1.14B232,2013-03-28 01:53:00,
2013-03-27 18:58:00,52.6,50.3,29.99,West,269,3.0,7.0,92,0.00,,,0.00,WeatherCatV1.14B232,2013-03-28 01:58:00,
2013-03-27 19:03:00,52.5,50.2,29.99,SW,229,4.0,6.0,92,0.00,,,0.00,WeatherCatV1.14B232,2013-03-28 02:03:00,
2013-03-27 19:08:00,52.5,50.2,29.99,West,263,6.0,11.0,92,0.00,,,0.00,WeatherCatV1.14B232,2013-03-28 02:08:00,
2013-03-27 19:13:00,52.4,50.1,29.99,West,280,4.0,7.0,92,0.00,,,0.00,WeatherCatV1.14B232,2013-03-28 02:13:00,
2013-03-27 19:18:00,52.4,50.1,29.99,West,275,7.0,8.0,92,0.00,,,0.00,WeatherCatV1.14B232,2013-03-28 02:18:00,
2013-03-27 19:23:00,52.3,50.0,29.99,WSW,249,11.0,11.0,92,0.00,,,0.00,WeatherCatV1.14B232,2013-03-28 02:23:00,
2013-03-27 19:28:00,52.3,50.0,30.00,West,266,4.0,9.0,92,0.00,,,0.00,WeatherCatV1.14B232,2013-03-28 02:28:00,
2013-03-27 19:33:00,52.3,50.0,29.99,WSW,240,8.0,8.0,92,0.00,,,0.00,WeatherCatV1.14B232,2013-03-28 02:33:00,
2013-03-27 19:38:00,52.2,49.9,29.99,West,262,9.0,9.0,92,0.00,,,0.00,WeatherCatV1.14B232,2013-03-28 02:38:00,
2013-03-27 19:43:00,52.3,50.0,30.00,West,269,4.0,7.0,92,0.00,,,0.00,WeatherCatV1.14B232,2013-03-28 02:43:00,
2013-03-27 19:48:00,52.3,50.0,30.00,SW,236,8.0,8.0,92,0.00,,,0.00,WeatherCatV1.14B232,2013-03-28 02:48:00,
2013-03-27 19:53:00,52.2,49.9,30.00,WNW,283,5.0,9.0,92,0.00,,,0.00,WeatherCatV1.14B232,2013-03-28 02:53:00,
2013-03-27 19:58:00,52.2,49.9,30.00,WSW,255,7.0,7.0,92,0.00,,,0.00,WeatherCatV1.14B232,2013-03-28 02:58:00,
2013-03-27 20:03:00,52.2,49.9,30.00,West,273,4.0,9.0,92,0.00,,,0.00,WeatherCatV1.14B232,2013-03-28 03:03:00,
2013-03-27 20:08:00,52.2,49.9,30.00,WSW,240,5.0,5.0,92,0.00,,,0.00,WeatherCatV1.14B232,2013-03-28 03:08:00,
2013-03-27 20:13:00,52.2,49.9,30.00,West,259,5.0,8.0,92,0.00,,,0.00,WeatherCatV1.14B232,2013-03-28 03:13:00,
2013-03-27 20:18:00,52.3,50.0,30.00,West,262,5.0,8.0,92,0.00,,,0.00,WeatherCatV1.14B232,2013-03-28 03:18:00,
2013-03-27 20:23:00,52.2,49.9,30.00,West,266,6.0,10.0,92,0.00,,,0.00,WeatherCatV1.14B232,2013-03-28 03:23:00,
2013-03-27 20:28:00,52.2,49.9,30.00,West,261,5.0,6.0,92,0.00,,,0.00,WeatherCatV1.14B232,2013-03-28 03:28:00,
2013-03-27 20:33:00,52.3,50.0,30.00,West,263,5.0,9.0,92,0.00,,,0.00,WeatherCatV1.14B232,2013-03-28 03:33:00,
2013-03-27 20:38:00,52.3,50.0,30.00,WSW,243,6.0,8.0,92,0.00,,,0.00,WeatherCatV1.14B232,2013-03-28 03:38:00,
2013-03-27 20:43:00,52.3,50.0,30.00,West,263,7.0,10.0,92,0.00,,,0.00,WeatherCatV1.14B232,2013-03-28 03:43:00,
2013-03-27 20:48:00,52.3,50.0,30.01,West,269,4.0,8.0,92,0.00,,,0.00,WeatherCatV1.14B232,2013-03-28 03:48:00,
2013-03-27 20:53:00,52.3,50.0,30.01,WSW,239,6.0,9.0,92,0.00,,,0.00,WeatherCatV1.14B232,2013-03-28 03:53:00,
2013-03-27 20:58:00,52.3,50.0,30.01,West,266,5.0,8.0,92,0.00,,,0.00,WeatherCatV1.14B232,2013-03-28 03:58:00,
2013-03-27 21:00:00,52.3,50.0,30.01,WSW,256,6.0,8.0,92,0.00,,,0.00,WeatherCatV1.14B232,2013-03-28 04:00:00,
2013-03-27 21:05:00,52.3,50.0,30.01,West,274,7.0,8.0,92,0.00,,,0.00,WeatherCatV1.14B232,2013-03-28 04:05:00,
2013-03-27 21:06:00,52.3,50.0,30.01,West,259,6.0,8.0,92,0.00,,,0.00,WeatherCatV1.14B232,2013-03-28 04:06:00,
2013-03-27 21:11:00,52.2,49.9,30.01,West,262,6.0,9.0,92,0.00,,,0.00,WeatherCatV1.14B232,2013-03-28 04:11:00,
2013-03-27 21:16:00,52.2,49.9,30.01,West,260,6.0,8.0,92,0.00,,,0.00,WeatherCatV1.14B232,2013-03-28 04:16:00,
2013-03-27 21:21:00,52.2,50.2,30.01,WSW,252,7.0,10.0,93,0.00,,,0.00,WeatherCatV1.14B232,2013-03-28 04:21:00,
2013-03-27 21:26:00,52.2,50.2,30.01,West,269,6.0,8.0,93,0.00,,,0.00,WeatherCatV1.14B232,2013-03-28 04:26:00,
2013-03-27 21:31:00,52.2,50.2,30.01,WSW,238,8.0,10.0,93,0.00,,,0.00,WeatherCatV1.14B232,2013-03-28 04:31:00,
2013-03-27 21:36:00,52.2,50.2,30.01,WSW,248,6.0,9.0,93,0.00,,,0.00,WeatherCatV1.14B232,2013-03-28 04:36:00,
2013-03-27 21:41:00,52.2,50.2,30.01,West,264,5.0,9.0,93,0.00,,,0.00,WeatherCatV1.14B232,2013-03-28 04:41:00,
2013-03-27 21:46:00,52.2,50.2,30.02,WSW,252,5.0,5.0,93,0.00,,,0.00,WeatherCatV1.14B232,2013-03-28 04:46:00,
2013-03-27 21:51:00,52.2,50.2,30.02,WSW,250,4.0,8.0,93,0.00,,,0.00,WeatherCatV1.14B232,2013-03-28 04:51:00,
2013-03-27 21:56:00,52.2,50.2,30.02,WSW,249,6.0,7.0,93,0.00,,,0.00,WeatherCatV1.14B232,2013-03-28 04:56:00,
2013-03-27 22:01:00,52.2,50.2,30.02,West,271,6.0,6.0,93,0.00,,,0.00,WeatherCatV1.14B232,2013-03-28 05:01:00,
2013-03-27 22:06:00,52.2,50.2,30.02,West,263,4.0,6.0,93,0.00,,,0.00,WeatherCatV1.14B232,2013-03-28 05:06:00,
2013-03-27 22:11:00,52.3,50.3,30.02,WSW,248,4.0,7.0,93,0.00,,,0.00,WeatherCatV1.14B232,2013-03-28 05:11:00,
2013-03-27 22:16:00,52.3,50.3,30.02,West,259,3.0,6.0,93,0.00,,,0.00,WeatherCatV1.14B232,2013-03-28 05:16:00,
2013-03-27 22:21:00,52.3,50.3,30.02,WSW,248,6.0,7.0,93,0.00,,,0.00,WeatherCatV1.14B232,2013-03-28 05:21:00,
2013-03-27 22:26:00,52.3,50.3,30.02,West,262,7.0,8.0,93,0.00,,,0.00,WeatherCatV1.14B232,2013-03-28 05:26:00,
2013-03-27 22:31:00,52.4,50.4,30.02,WSW,252,4.0,8.0,93,0.00,,,0.00,WeatherCatV1.14B232,2013-03-28 05:31:00,
2013-03-27 22:37:00,52.4,50.4,30.02,WSW,253,4.0,6.0,93,0.00,,,0.00,WeatherCatV1.14B232,2013-03-28 05:37:00,
2013-03-27 22:42:00,52.3,50.3,30.02,WSW,244,4.0,5.0,93,0.00,,,0.00,WeatherCatV1.14B232,2013-03-28 05:42:00,
2013-03-27 22:47:00,52.3,50.3,30.02,WSW,240,0.0,2.0,93,0.00,,,0.00,WeatherCatV1.14B232,2013-03-28 05:47:00,
2013-03-27 22:52:00,52.3,50.3,30.02,WSW,255,1.0,2.0,93,0.00,,,0.00,WeatherCatV1.14B232,2013-03-28 05:52:00,
2013-03-27 22:57:00,52.4,50.4,30.02,WSW,257,1.0,1.0,93,0.00,,,0.00,WeatherCatV1.14B232,2013-03-28 05:57:00,
2013-03-27 23:02:00,52.4,50.4,30.03,WSW,249,2.0,3.0,93,0.00,,,0.00,WeatherCatV1.14B232,2013-03-28 06:02:00,
2013-03-27 23:07:00,52.4,50.4,30.03,SW,228,2.0,5.0,93,0.00,,,0.00,WeatherCatV1.14B232,2013-03-28 06:07:00,
2013-03-27 23:12:00,52.4,50.4,30.03,WSW,244,7.0,7.0,93,0.00,,,0.00,WeatherCatV1.14B232,2013-03-28 06:12:00,
2013-03-27 23:17:00,52.4,50.4,30.03,West,260,6.0,7.0,93,0.00,,,0.00,WeatherCatV1.14B232,2013-03-28 06:17:00,
2013-03-27 23:22:00,52.4,50.4,30.03,WSW,258,2.0,4.0,93,0.00,,,0.00,WeatherCatV1.14B232,2013-03-28 06:22:00,
2013-03-27 23:27:00,52.4,50.4,30.03,West,259,2.0,5.0,93,0.00,,,0.00,WeatherCatV1.14B232,2013-03-28 06:27:00,
2013-03-27 23:32:00,52.4,50.4,30.03,West,262,2.0,3.0,93,0.00,,,0.00,WeatherCatV1.14B232,2013-03-28 06:32:00,
2013-03-27 23:37:00,52.4,50.4,30.02,WSW,256,3.0,5.0,93,0.00,,,0.00,WeatherCatV1.14B232,2013-03-28 06:37:00,
2013-03-27 23:42:00,52.4,50.4,30.02,WSW,251,1.0,3.0,93,0.00,,,0.00,WeatherCatV1.14B232,2013-03-28 06:42:00,
2013-03-27 23:47:00,52.5,50.5,30.03,West,270,2.0,4.0,93,0.00,,,0.00,WeatherCatV1.14B232,2013-03-28 06:47:00,
2013-03-27 23:52:00,52.5,50.5,30.02,WSW,240,2.0,3.0,93,0.00,,,0.00,WeatherCatV1.14B232,2013-03-28 06:52:00,
2013-03-27 23:57:00,52.5,50.5,30.03,West,260,3.0,4.0,93,0.00,,,0.00,WeatherCatV1.14B232,2013-03-28 06:57:00,